Friday, August 28, 2015, 8:39 AM EDT

KMUI, Muir Army Air Field / Indiantown

Location: Jonestown, PA, United States Lat: 40.433
Local Time: 8:39 AM EDT (12:39 GMT) Lon: -76.567
Time Zone: US/Eastern Elev: 488 ft

Show me the last for .
Show Decoded

2015-08-28 07:58 METAR KMUI 281158Z 00000KT 10SM FEW120 16/14 A3021 RMK AO2A SLP232 T01550139
                 10159 20121 52017 =
2015-08-28 06:58 METAR KMUI 281058Z AUTO 00000KT 10SM CLR 12/12 A3018 RMK AO2 SLP222 T01240121 =
2015-08-28 05:58 METAR KMUI 280958Z AUTO 05002KT 8SM CLR 13/12 A3017 RMK AO2 SLP218 T01280123 =
2015-08-28 03:58 METAR KMUI 280758Z AUTO 00000KT 10SM BKN070 15/14 A3016 RMK AO2 SLP214 T01510140
                 =
2015-08-28 02:58 METAR KMUI 280658Z AUTO 00000KT 10SM FEW046 OVC065 15/14 A3016 RMK AO2 SLP214
                 T01540141 =
2015-08-28 01:58 METAR KMUI 280558Z AUTO 00000KT 10SM OVC070 15/14 A3016 RMK AO2 SLP214 60001
                 T01510138 10201 20144 50003 =
2015-08-28 00:58 METAR KMUI 280458Z AUTO 00000KT 10SM OVC070 15/14 A3017 RMK AO2 SLP218 T01480137
                 402430144 =
2015-08-27 23:58 METAR KMUI 280358Z AUTO 00000KT 10SM OVC070 15/14 A3016 RMK AO2 SLP214 T01460136
                 =
2015-08-27 22:58 METAR KMUI 280258Z AUTO 00000KT 10SM SCT070 15/13 A3016 RMK AO2 SLP214 60001
                 T01470134 52015 =
2015-08-27 21:58 METAR KMUI 280158Z AUTO 00000KT 10SM CLR 17/14 A3015 RMK AO2 SLP211 P0001
                 T01670138 =
2015-08-27 20:58 METAR KMUI 280058Z AUTO 33003KT 10SM CLR 19/14 A3014 RMK AO2 SLP208 T01880136 =
2015-08-27 19:58 METAR KMUI 272358Z AUTO VRB03KT 10SM BKN065 20/15 A3011 RMK AO2 SLP197 T02020147
                 10240 20202 52005 =
2015-08-27 18:58 METAR KMUI 272258Z AUTO VRB03KT 10SM OVC065 21/14 A3011 RMK AO2 SLP197 T02140136
                 =
2015-08-27 17:58 METAR KMUI 272158Z AUTO 32006KT 10SM OVC060 22/13 A3010 RMK AO2 SLP194 T02170133
                 =
2015-08-27 16:58 METAR KMUI 272058Z AUTO 34007KT 10SM BKN065 23/13 A3010 RMK AO2 SLP194 T02260131
                 55006 =
2015-08-27 15:58 METAR KMUI 271958Z AUTO 34009KT 10SM BKN047 OVC055 23/13 A3009 RMK AO2 SLP190
                 T02250133 =
2015-08-27 14:58 METAR KMUI 271858Z AUTO VRB04KT 10SM OVC065 23/13 A3011 RMK AO2 SLP197 T02270126
                 =
2015-08-27 13:58 METAR KMUI 271758Z VRB05KT 10SM BKN044 BKN060 24/13 A3012 RMK AO2A SLP200
                 T02430129 10243 20179 56007 =
2015-08-27 12:58 METAR KMUI 271658Z AUTO VRB06KT 10SM SCT042 BKN055 24/13 A3012 RMK AO2 SLP200
                 T02350126 =
2015-08-27 11:58 METAR KMUI 271558Z AUTO 36004KT 10SM BKN037 23/13 A3013 RMK AO2 SLP204 T02260132
                 =
2015-08-27 10:58 METAR KMUI 271458Z COR AUTO VRB04KT 10SM SCT035 22/13 A3014 RMK AO2 SLP207
                 T02190127 52006 COR 1508 =
2015-08-27 09:58 METAR KMUI 271358Z VRB06KT 10SM SCT032 SCT250 21/13 A3013 RMK AO2A SLP204
                 T02080127 PNO $ =
2015-08-27 08:58 METAR KMUI 271258Z AUTO VRB03KT 10SM CLR 19/13 A3012 RMK AO2 SLP201 T01930130
                 PNO $ =

Support USWX by starting your Amazon purchase here.